• Join FlightAware (Why Join?)
  • Login
  • US Flag 
08:52AM EDT


 

Airport Tracker/Info


-or-


 

Live Flight TrackerFlight Track Log ✈ ELJ620 ✈ 17-May-2013 ✈ KPDK - KPBI

Flight Track Log - Related Links

Times and Time Zones

All times are in EDT time to prevent confusion due to time zone crossing. See the ELJ620 flight status page for this flight to view local times or setup timezone preferences in your user account.

Time Position Orientation Groundspeed Altitude Reporting Facility
EDT Latitude Longitude Course Direction KTS MPH feet Rate Location/Type
08:34AM 33.9000 -84.3000 292° West 161 185 1,800  Level Atlanta TRACON
08:35AM 33.9167 -84.3500 292° West 220 253 4,700 2,160 Climbing Atlanta TRACON
08:36AM 33.8667 -84.3833 209° Southwest 239 275 6,000 720 Climbing Atlanta TRACON
08:37AM 33.8000 -84.3833 180° South 243 280 6,100  Climbing Atlanta TRACON
08:38AM 33.7500 -84.4000 195° South 252 290 6,000  Descending Atlanta TRACON
08:39AM 33.6667 -84.4000 180° South 246 283 6,100  Climbing Atlanta TRACON
08:40AM 33.6000 -84.4000 180° South 276 318 6,100  Level Atlanta TRACON
08:41AM 33.5333 -84.4000 180° South 238 274 6,100  Level Atlanta TRACON
08:41AM 33.4833 -84.4000 180° South 251 289 6,200 1,920 Climbing Atlanta TRACON
08:44AM 33.3306 -84.3472 164° South 257 296 12,100 2,760 Climbing Atlanta Center
08:45AM 33.2639 -84.3219 162° South 262 302 15,200 2,400 Climbing Atlanta Center
08:46AM 33.2033 -84.2969 161° South 262 302 17,000 2,340 Climbing Atlanta Center
08:47AM 33.1303 -84.2644 160° South 270 311 19,900 2,700 Climbing Atlanta Center
08:48AM 33.0594 -84.2347 161° South 275 316 22,500 2,400 Climbing Atlanta Center
08:49AM 32.9800 -84.1997 160° South 287 330 24,800 2,280 Climbing Atlanta Center
08:50AM 32.9028 -84.1675 161° South 292 336 27,100 2,100 Climbing Atlanta Center
08:51AM 32.8194 -84.1353 162° South 298 343 29,100 1,800 Climbing Atlanta Center
08:52AM 32.7400 -84.0956 157° South 310 357 30,800 1,500 Climbing Atlanta Center
08:53AM 32.6525 -84.0586 160° South 325 374 32,200 1,440 Climbing Atlanta Center
08:54AM 32.5606 -84.0192 160° South 337 388 33,700 1,440 Climbing Atlanta Center
08:55AM 32.4708 -83.9822 161° South 343 395 35,100 1,380 Climbing Atlanta Center
08:56AM 32.3789 -83.9431 160° South 349 402 36,500 1,320 Climbing Atlanta Center
08:57AM 32.2831 -83.9036 161° South 349 402 37,800 1,200 Climbing Atlanta Center
08:58AM 32.1889 -83.8622 160° South 349 402 38,900 840 Climbing Atlanta Center
08:59AM 32.0317 -83.7969 161° South 348 400 40,000 720 Climbing Jacksonville Center
09:00AM 31.9319 -83.7542 160° South 366 421 40,800 480 Climbing Jacksonville Center
09:01AM 31.8403 -83.7119 159° South 381 438 41,000 60 Climbing Jacksonville Center
09:02AM 31.7319 -83.6669 161° South 402 463 41,000  Level Jacksonville Center
09:03AM 31.6236 -83.6219 161° South 407 468 41,000  Level Jacksonville Center
09:04AM 31.5111 -83.5797 162° South 420 483 41,000  Level Jacksonville Center
09:05AM 31.4092 -83.5378 161° South 408 470 41,000  Level Jacksonville Center
09:06AM 31.3050 -83.4931 160° South 403 464 41,000  Level Jacksonville Center
09:07AM 31.2008 -83.4439 158° South 403 464 41,000  Level Jacksonville Center
09:08AM 31.0967 -83.3922 157° South 403 464 41,000  Level Jacksonville Center
09:09AM 30.9944 -83.3433 158° South 408 470 41,000  Level Jacksonville Center
09:10AM 30.8881 -83.2894 157° South 408 470 41,000  Level Jacksonville Center
09:11AM 30.7900 -83.2408 157° South 408 470 41,000  Level Jacksonville Center
09:12AM 30.6839 -83.1897 157° South 403 464 41,000  Level Jacksonville Center
09:13AM 30.5794 -83.1411 158° South 403 464 41,000  Level Jacksonville Center
09:14AM 30.4731 -83.0903 158° South 408 470 41,000  Level Jacksonville Center
09:15AM 30.3686 -83.0419 158° South 413 475 41,000  Level Jacksonville Center
09:16AM 30.2622 -82.9911 158° South 413 475 41,000  Level Jacksonville Center
09:17AM 30.1581 -82.9406 157° South 413 475 41,000  Level Jacksonville Center
09:18AM 30.0514 -82.8903 158° South 413 475 41,000  Level Jacksonville Center
09:19AM 29.9408 -82.8447 160° South 419 482 41,000  Level Jacksonville Center
09:20AM 29.8364 -82.7944 157° South 414 476 41,000  Level Jacksonville Center
09:21AM 29.7319 -82.7467 158° South 409 471 41,000  Level Jacksonville Center
09:22AM 29.6256 -82.6967 158° South 409 471 41,000  Level Jacksonville Center
09:23AM 29.5231 -82.6492 158° South 409 471 41,000  Level Jacksonville Center
09:24AM 29.4186 -82.5944 155° Southeast 414 476 41,000  Level Jacksonville Center
09:25AM 29.3161 -82.5497 159° South 414 476 41,000  Level Jacksonville Center
09:26AM 29.2117 -82.5000 157° South 414 476 41,000  Level Jacksonville Center
09:27AM 29.1092 -82.4553 159° South 414 476 41,000 -360 Level Jacksonville Center
09:28AM 28.9922 -82.4319 170° South 402 463 40,300 -900 Descending Jacksonville Center
09:29AM 28.8836 -82.4183 174° South 397 457 39,300 -1,020 Descending Jacksonville Center
09:30AM 28.7750 -82.4047 174° South 397 457 38,300 -960 Descending Jacksonville Center
09:31AM 28.6769 -82.3933 174° South 397 457 37,400 -660 Descending Jacksonville Center
09:32AM 28.5664 -82.3797 174° South 397 457 37,000 -240 Descending Jacksonville Center
09:34AM 28.3083 -82.3456 173° South 404 465 36,800 -420 Descending Miami Center
09:35AM 28.2006 -82.3308 173° South 404 465 35,800 -900 Descending Miami Center
09:36AM 28.0883 -82.3161 173° South 404 465 35,000 -420 Descending Miami Center
09:37AM 27.9789 -82.2919 169° South 404 465 35,000  Level Miami Center
09:38AM 27.8697 -82.2539 163° South 409 471 35,000 -180 Level Miami Center
09:39AM 27.7586 -82.2133 162° South 416 479 34,700 -1,020 Descending Miami Center
09:40AM 27.6494 -82.1756 163° South 416 479 33,000 -1,680 Descending Miami Center
09:41AM 27.5400 -82.1400 164° South 416 479 31,400 -1,740 Descending Miami Center
09:42AM 27.4308 -82.1022 163° South 411 473 29,600 -1,740 Descending Miami Center
09:43AM 27.3300 -82.0603 160° South 405 466 28,000 -1,500 Descending Miami Center
09:44AM 27.2278 -81.9997 152° Southeast 405 466 26,600 -1,440 Descending Miami Center
09:45AM 27.1319 -81.9417 152° Southeast 405 466 25,200 -1,320 Descending Miami Center
09:46AM 27.0378 -81.8864 152° Southeast 398 458 24,000 -1,200 Descending Miami Center
09:47AM 26.9436 -81.8333 153° Southeast 386 444 22,800 -1,260 Descending Miami Center
09:48AM 26.8514 -81.7806 153° Southeast 381 438 21,500 -1,380 Descending Miami Center
09:49AM 26.7594 -81.7256 152° Southeast 375 432 20,100 -1,260 Descending Miami Center
09:50AM 26.6950 -81.6556 136° Southeast 365 420 19,000 -900 Descending Miami Center
09:51AM 26.7067 -81.5467 83° East 301 346 18,400 -540 Descending Miami Center
09:52AM 26.7333 -81.4386 75° East 314 361 18,000 -300 Descending Miami Center
09:53AM 26.7572 -81.3347 76° East 333 383 17,800 -1,140 Descending Miami Center
09:54AM 26.7836 -81.2242 75° East 351 404 15,800 -1,980 Descending Miami Center
09:55AM 26.8097 -81.1228 74° East 351 404 13,900 -2,100 Descending Miami Center
09:56AM 26.8231 -81.0233 81° East 327 376 11,700 -1,980 Descending Miami Center
09:57AM 26.8319 -80.9306 84° East 305 351 10,000 -900 Descending Miami Center
09:58AM 26.8322 -80.8419 90° East 287 330 9,900 -60 Descending Miami Center
09:59AM 26.8031 -80.7572 111° Southeast 273 314 9,900 -420 Level Miami Center
10:00AM 26.7736 -80.6864 115° Southeast 268 308 9,100 -1,140 Descending Miami Center
10:01AM 26.7503 -80.6253 113° Southeast 251 289 7,700 -1,500 Descending Miami Center
10:02AM 26.7208 -80.5522 114° Southeast 229 264 6,200 -1,380 Descending Miami Center
10:03AM 26.6908 -80.5000 123° Southeast 229 264 5,000 -600 Descending Miami Center
10:04AM 26.6547 -80.4364 122° Southeast 224 258 5,000  Level Miami Center
10:05AM 26.6247 -80.3867 124° Southeast 219 252 5,000  Level Miami Center
10:07AM 26.6181 -80.2695 119° Southeast  Level FlightAware Approximate
10:14AM 26.6667 -80.0833 50° Northeast  Level FlightAware Approximate
10:15AM 26.6832 -80.0956 50° Northeast  Level Estimated
10:16AM 26.6832 -80.0956 50° Northeast  Level Estimated
10:17AM 26.6832 -80.0956 50° Northeast  Level Estimated
10:18AM 26.6832 -80.0956 50° Northeast  Level Estimated
10:19AM 26.6832 -80.0956 50° Northeast  Level Estimated
10:20AM 26.6832 -80.0956 50° Northeast  Level Estimated
10:21AM 26.6832 -80.0956 50° Northeast  Level Estimated
10:22AM 26.6832 -80.0956 50° Northeast  Level Estimated
10:23AM 26.6832 -80.0956 50° Northeast  Level Estimated